METAR Data
IDs: Format: Raw Decoded Include TAF

Data at: 2117 UTC 10 May 2021

KANK 102055Z AUTO 11016G27KT 10SM SCT070 SCT080 BKN110 09/01 A3002 RMK AO1 T00900014
KANK 102035Z AUTO 12012G23KT 10SM SCT070 SCT080 BKN090 07/01 A3002 RMK AO1 T00710013
KANK 102015Z AUTO 13017G27KT 10SM CLR 07/01 A3003 RMK AO1 T00690007
KANK 101955Z AUTO 13015G22KT 10SM SCT090 SCT120 09/01 A3002 RMK AO1 T00920012
KANK 101935Z AUTO 13013G18KT 10SM SCT080 BKN090 BKN120 09/01 A3002 RMK AO1 T00920009
KANK 101915Z AUTO 13012G26KT 10SM BKN080 BKN110 07/01 A3003 RMK AO1 T00720010
KANK 101855Z AUTO 13015G19KT 10SM SCT090 SCT120 08/01 A3005 RMK AO1 T00820010
KANK 101835Z AUTO 13013G18KT 10SM SCT065 BKN080 BKN120 07/01 A3005 RMK AO1 T00680008
KANK 101815Z AUTO 13017G22KT 10SM BKN080 BKN090 BKN110 08/01 A3007 RMK AO1 T00750006
KANK 101755Z AUTO 13014G19KT 10SM SCT070 BKN090 BKN110 07/01 A3008 RMK AO1 T00670009 10067 20013
KANK 101735Z AUTO 13012G18KT 10SM BKN090 OVC110 06/01 A3008 RMK AO1 T00600005
KANK 101715Z AUTO 14010G19KT 10SM SCT080 BKN090 BKN120 06/00 A3009 RMK AO1 T00570003
KANK 101655Z AUTO 14012KT 10SM SCT014 SCT070 OVC080 05/00 A3010 RMK AO1 T00500001
KANK 101635Z AUTO 12009G16KT 10SM BKN070 OVC080 05/00 A3010 RMK AO1 T00500002
KANK 101615Z AUTO 13010G18KT 10SM SCT055 BKN070 OVC075 05/00 A3010 RMK AO1 T00450000
KANK 101555Z AUTO 14012KT 10SM SCT048 BKN060 OVC070 04/00 A3010 RMK AO1 T00430000
KANK 101535Z AUTO 15011G16KT 10SM SCT013 BKN070 OVC080 04/00 A3010 RMK AO1 T00430000
KANK 101515Z AUTO 12007KT 10SM SCT013 SCT055 OVC090 04/00 A3011 RMK AO1 T00410000
KANK 101455Z AUTO 12011G17KT 10SM SCT013 BKN100 05/00 A3011 RMK AO1 T00460000
KANK 101435Z AUTO 13016G20KT 10SM SCT013 05/00 A3012 RMK AO1 T00460000
KANK 101415Z AUTO 11010KT 10SM SCT011 SCT021 04/00 A3012 RMK AO1 T00430000
KANK 101355Z AUTO 13009KT 10SM BKN019 04/00 A3013 RMK AO1 T00420000
KANK 101335Z AUTO 14009KT 10SM OVC017 04/00 A3013 RMK AO1 T00360000
KANK 101315Z AUTO 12007KT 10SM BKN017 04/00 A3013 RMK AO1 T00350000
KANK 101255Z AUTO 13006KT 10SM SCT017 SCT022 02/00 A3013 RMK AO1 T00210000
KANK 101235Z AUTO 12005KT 10SM SCT017 SCT023 SCT075 02/00 A3013 RMK AO1 T00151002
KANK 101215Z AUTO 14007KT 10SM CLR 02/00 A3013 RMK AO1 T00151002
KANK 101155Z AUTO 12004KT 10SM CLR 02/00 A3013 RMK AO1 T00151002 10038 20015
KANK 101135Z AUTO 13006KT 10SM CLR 02/00 A3014 RMK AO1 T00191002
KANK 101115Z AUTO 14009KT 10SM SCT018 02/00 A3014 RMK AO1 T00210000
KANK 101055Z AUTO 13008KT 10SM BKN018 BKN100 03/00 A3015 RMK AO1 T00250000
KANK 101035Z AUTO 14007KT 10SM SCT016 BKN090 03/00 A3015 RMK AO1 T00300002
KANK 101015Z AUTO 14009KT 10SM SCT013 BKN090 OVC110 03/00 A3015 RMK AO1 T00280003
KANK 100955Z AUTO 14008KT 10SM BKN013 BKN060 OVC090 03/01 A3015 RMK AO1 T00300005
KANK 100935Z AUTO 13007KT 10SM OVC013 03/01 A3016 RMK AO1 T00310005
KANK 100915Z AUTO 13008KT 10SM BKN013 BKN070 OVC085 03/01 A3016 RMK AO1 T00320005
KANK 100855Z AUTO 12009KT 10SM BKN013 OVC095 03/01 A3015 RMK AO1 T00330005
KANK 100835Z AUTO 12007KT 10SM BKN013 OVC018 04/01 A3017 RMK AO1 T00350007
KANK 100815Z AUTO 12011G17KT 10SM BKN016 BKN045 OVC090 04/01 A3017 RMK AO1 T00350008
KANK 100755Z AUTO 12010G15KT 10SM BKN014 BKN046 OVC110 04/01 A3017 RMK AO1 T00350010
KANK 100735Z AUTO 12013G19KT 10SM BKN014 OVC120 04/01 A3017 RMK AO1 T00370010
KANK 100715Z AUTO 12009G14KT 10SM BKN014 BKN020 OVC110 04/01 A3017 RMK AO1 T00370010
KANK 100655Z AUTO 12009G14KT 10SM BKN014 BKN020 OVC110 04/01 A3017 RMK AO1 T00370010
KANK 100635Z AUTO 13008KT 10SM SCT014 BKN120 04/01 A3017 RMK AO1 T00380010
KANK 100615Z AUTO 12010G17KT 10SM SCT014 SCT018 04/01 A3016 RMK AO1 T00370009
KANK 100555Z AUTO 12011G18KT 10SM SCT018 SCT100 SCT120 04/01 A3015 RMK AO1 T00370008 10062 20037 401100005
KANK 100535Z AUTO 13012G18KT 10SM SCT018 SCT110 04/01 A3015 RMK AO1 T00400007
KANK 100515Z AUTO 13010G16KT 10SM SCT120 04/01 A3016 RMK AO1 T00410007
KANK 100455Z AUTO 14014G18KT 10SM BKN120 04/01 A3016 RMK AO1 T00420006
KANK 100435Z AUTO 14012G19KT 10SM BKN110 04/01 A3016 RMK AO1 T00440005
KANK 100415Z AUTO 15009G18KT 10SM CLR 05/00 A3015 RMK AO1 T00450003
KANK 100355Z AUTO 15012G19KT 10SM CLR 04/00 A3015 RMK AO1 T00430003
KANK 100335Z AUTO 14016G22KT 10SM CLR 04/00 A3015 RMK AO1 T00430003
KANK 100315Z AUTO 12015G21KT 10SM CLR 04/00 A3014 RMK AO1 T00430003
KANK 100255Z AUTO 13012G21KT 10SM CLR 05/00 A3014 RMK AO1 T00450002
KANK 100235Z AUTO 13017G23KT 10SM CLR 05/00 A3013 RMK AO1 T00450002
KANK 100215Z AUTO 13014G24KT 10SM CLR 05/00 A3013 RMK AO1 T00480002
KANK 100155Z AUTO 12013G20KT 10SM CLR 05/01 A3012 RMK AO1 T00500005
KANK 100135Z AUTO 13016G22KT 10SM SCT090 SCT110 06/01 A3012 RMK AO1 T00550006
KANK 100115Z AUTO 12015G21KT 10SM SCT090 BKN120 06/01 A3011 RMK AO1 T00590008
KANK 100055Z AUTO 12014G25KT 10SM SCT120 06/01 A3010 RMK AO1 T00570010
KANK 100035Z AUTO 12013G21KT 10SM SCT090 SCT120 06/01 A3009 RMK AO1 T00580012
KANK 100015Z AUTO 13012G24KT 10SM SCT090 SCT120 06/01 A3008 RMK AO1 T00610010
KANK 092355Z AUTO 13018G28KT 10SM SCT090 06/01 A3007 RMK AO1 T00620009 10092 20062
KANK 092335Z AUTO 13021G30KT 10SM CLR 07/01 A3006 RMK AO1 T00680009
KANK 092315Z AUTO 13020G27KT 10SM SCT095 08/01 A3007 RMK AO1 T00780009
KANK 092255Z AUTO 12018G28KT 10SM BKN095 BKN120 07/01 A3007 RMK AO1 T00680006
KANK 092235Z AUTO 12017G27KT 10SM SCT120 07/01 A3007 RMK AO1 T00700006
KANK 092215Z AUTO 13018G28KT 10SM CLR 07/01 A3007 RMK AO1 T00700006
KANK 092155Z AUTO 13018G25KT 10SM CLR 08/01 A3007 RMK AO1 T00810006
KANK 092135Z AUTO 13020G25KT 10SM CLR 08/01 A3008 RMK AO1 T00810005
KANK 092115Z AUTO 12017G27KT 10SM CLR 08/00 A3007 RMK AO1 T00810003
KANK 092055Z AUTO 12020G28KT 10SM CLR 09/01 A3007 RMK AO1 T00860005
KANK 092035Z AUTO 12020G29KT 10SM CLR 09/01 A3007 RMK AO1 T00910007
KANK 092015Z AUTO 13019G27KT 10SM CLR 08/01 A3007 RMK AO1 T00820008
KANK 091955Z AUTO 13018G26KT 10SM CLR 09/01 A3009 RMK AO1 T00860007
KANK 091935Z AUTO 13018G25KT 10SM SCT120 08/01 A3010 RMK AO1 T00800006
KANK 091915Z AUTO 13016G30KT 10SM SCT120 08/01 A3010 RMK AO1 T00800006
KANK 091855Z AUTO 13017G29KT 10SM SCT120 08/01 A3010 RMK AO1 T00810006
KANK 091835Z AUTO 11019G29KT 10SM CLR 09/01 A3011 RMK AO1 T00880007
KANK 091815Z AUTO 13021G30KT 10SM CLR 09/01 A3011 RMK AO1 T00900009
KANK 091755Z AUTO 12018G30KT 10SM CLR 09/01 A3011 RMK AO1 T00850007 10110 20008
KANK 091735Z AUTO 12018G29KT 10SM CLR 10/01 A3011 RMK AO1 T00990009
KANK 091715Z AUTO 11017G25KT 10SM CLR 10/01 A3011 RMK AO1 T01040010
KANK 091655Z AUTO 12017G27KT 10SM CLR 11/01 A3011 RMK AO1 T01050009
KANK 091635Z AUTO 11017G24KT 10SM CLR 10/00 A3011 RMK AO1 T01040003
KANK 091615Z AUTO 12016G22KT 10SM CLR 10/00 A3011 RMK AO1 T00980000
KANK 091555Z AUTO 12015G20KT 10SM CLR 10/01 A3012 RMK AO1 T01000006
KANK 091535Z AUTO 12009G20KT 10SM CLR 09/01 A3012 RMK AO1 T00930010
KANK 091515Z AUTO 11014G22KT 10SM CLR 09/01 A3013 RMK AO1 T00880006
KANK 091455Z AUTO 11011G18KT 10SM CLR 09/01 A3014 RMK AO1 T00880010
KANK 091435Z AUTO 13011G17KT 10SM CLR 08/01 A3014 RMK AO1 T00800011
KANK 091415Z AUTO 12013G21KT 10SM CLR 07/01 A3014 RMK AO1 T00730012
KANK 091355Z AUTO 16003KT 10SM CLR 06/00 A3014 RMK AO1 T00590002
KANK 091335Z AUTO 00000KT 10SM CLR 05/00 A3015 RMK AO1 T00450000
KANK 091315Z AUTO 00000KT 10SM CLR 03/M01 A3014 RMK AO1 T00311006
KANK 091255Z AUTO 12003KT 10SM CLR 03/00 A3013 RMK AO1 T00280000
KANK 091235Z AUTO 00000KT 10SM CLR 03/00 A3013 RMK AO1 T00261004
KANK 091215Z AUTO 00000KT 10SM CLR 02/M01 A3012 RMK AO1 T00171011
KANK 091155Z AUTO 00000KT 10SM CLR 01/M03 A3012 RMK AO1 T00061030 10073 20005
KANK 091135Z AUTO 29004KT 10SM CLR 01/M03 A3012 RMK AO1 T00101028
KANK 091115Z AUTO 00000KT 10SM CLR 02/M03 A3012 RMK AO1 T00221026
KANK 091055Z AUTO 31003KT 10SM CLR 02/M03 A3011 RMK AO1 T00161026
KANK 091035Z AUTO 00000KT 10SM CLR 02/M03 A3011 RMK AO1 T00191026
KANK 091015Z AUTO 28004KT 10SM CLR 02/M02 A3011 RMK AO1 T00191025
KANK 090955Z AUTO 28003KT 10SM CLR 02/M03 A3011 RMK AO1 T00191027
KANK 090935Z AUTO 27005KT 10SM CLR 02/M03 A3011 RMK AO1 T00161027